Terminal Aerodrome Forecast
Issued by NWS

Home | Current Version | Previous Version | Text Only | Print | Product List | Glossary On
Versions: 1 2 3 4 5 6 7 8 9 10 11 12
000
FTUS46 KPDT 011700
TAFPSC
TAF
KPSC 011738Z 0118/0218 VRB05KT P6SM SCT200 BKN250
     FM012000 35005KT P6SM SCT250
     FM012300 01006KT P6SM BKN180 BKN250
     FM020500 VRB05KT P6SM SCT150 BKN200=

USA.gov is the U.S. government's official web portal to all federal, state and local government web resources and services.